createdAt,value
2018-12-08T00:03:47.543Z,1.90
2018-12-08T00:08:45.184Z,1.80
2018-12-08T00:13:42.248Z,1.80
2018-12-08T00:18:39.434Z,1.80
2018-12-08T00:23:37.344Z,1.80
2018-12-08T00:28:40.263Z,1.80
2018-12-08T00:33:37.878Z,1.70
2018-12-08T00:38:35.752Z,1.60
2018-12-08T00:43:32.845Z,1.60
2018-12-08T00:48:29.811Z,1.70
2018-12-08T00:53:31.196Z,1.80
2018-12-08T00:58:28.957Z,1.80
2018-12-08T01:03:28.655Z,1.80
2018-12-08T01:08:26.291Z,1.70
2018-12-08T01:13:23.504Z,1.80
2018-12-08T01:18:21.176Z,1.70
2018-12-08T01:23:21.652Z,1.80
2018-12-08T01:28:24.589Z,1.80
2018-12-08T01:33:22.507Z,1.80
2018-12-08T01:38:25.034Z,1.90
2018-12-08T01:43:22.817Z,1.90
2018-12-08T01:48:20.308Z,1.90
2018-12-08T01:53:17.075Z,2.00
2018-12-08T01:58:19.601Z,2.10
2018-12-08T02:03:17.395Z,2.20
2018-12-08T02:08:16.123Z,2.20
2018-12-08T02:13:18.431Z,2.20
2018-12-08T02:18:21.819Z,2.20
2018-12-08T02:23:19.182Z,2.40
2018-12-08T02:28:17.660Z,2.40
2018-12-08T02:33:15.322Z,2.50
2018-12-08T02:38:13.189Z,2.70
2018-12-08T02:43:10.569Z,2.90
2018-12-08T02:48:12.897Z,3.00
2018-12-08T02:53:16.503Z,2.90
2018-12-08T02:58:14.902Z,3.30
2018-12-08T03:03:12.447Z,3.30
2018-12-08T03:08:10.263Z,3.10
2018-12-08T03:13:07.316Z,3.20
2018-12-08T03:18:10.335Z,3.30
2018-12-08T03:23:07.547Z,3.40
2018-12-08T03:28:04.773Z,3.50
2018-12-08T03:33:07.742Z,3.60
2018-12-08T03:38:06.414Z,3.60
2018-12-08T03:43:04.743Z,3.60
2018-12-08T03:48:02.662Z,3.60
2018-12-08T03:52:59.907Z,3.70
2018-12-08T03:57:59.283Z,3.90
2018-12-08T04:03:01.083Z,4.10
2018-12-08T04:08:03.027Z,4.00
2018-12-08T04:13:06.104Z,4.00
2018-12-08T04:18:05.876Z,4.00
2018-12-08T04:23:03.775Z,4.10
2018-12-08T04:28:01.596Z,4.00
2018-12-08T04:32:59.491Z,3.90
2018-12-08T04:37:58.505Z,3.90
2018-12-08T04:43:01.014Z,4.10
2018-12-08T04:48:02.497Z,4.20
2018-12-08T04:53:04.753Z,4.00
2018-12-08T04:58:06.495Z,4.00
2018-12-08T05:03:04.737Z,3.90
2018-12-08T05:08:02.697Z,3.70
2018-12-08T05:13:00.555Z,3.90
2018-12-08T05:17:57.815Z,3.90
2018-12-08T05:22:56.023Z,3.80
2018-12-08T05:27:58.847Z,3.80
2018-12-08T05:32:56.175Z,3.80
2018-12-08T05:37:53.937Z,3.80
2018-12-08T05:42:51.774Z,3.90
2018-12-08T05:47:49.704Z,3.90
2018-12-08T05:52:47.054Z,3.90
2018-12-08T05:57:44.895Z,3.80
2018-12-08T06:02:42.814Z,3.80
2018-12-08T06:07:40.975Z,3.90
2018-12-08T06:12:38.703Z,3.90
2018-12-08T06:17:41.471Z,4.10
2018-12-08T06:22:39.215Z,4.00
2018-12-08T06:27:39.094Z,3.90
2018-12-08T06:32:37.133Z,4.00
2018-12-08T06:37:35.087Z,4.00
2018-12-08T06:42:33.749Z,4.00
2018-12-08T06:47:31.475Z,4.00
2018-12-08T06:52:29.374Z,4.10
2018-12-08T06:57:27.195Z,4.10
2018-12-08T07:02:25.168Z,4.20
2018-12-08T07:07:23.425Z,4.20
2018-12-08T07:12:20.687Z,4.30
2018-12-08T07:17:18.575Z,4.30
2018-12-08T07:22:16.098Z,4.40
2018-12-08T07:27:14.580Z,4.40
2018-12-08T07:32:16.585Z,4.50
2018-12-08T07:34:46.840Z,4.60
2018-12-08T07:39:49.414Z,4.70
2018-12-08T07:44:46.995Z,4.60
2018-12-08T07:49:45.394Z,4.60
2018-12-08T07:54:43.053Z,4.60
2018-12-08T07:59:40.934Z,4.60
2018-12-08T08:04:38.091Z,4.60
2018-12-08T08:09:36.654Z,4.60
2018-12-08T08:14:33.974Z,4.70
2018-12-08T08:19:35.434Z,4.80
2018-12-08T08:24:33.412Z,4.90
2018-12-08T08:29:31.218Z,4.90
2018-12-08T08:34:29.196Z,4.90
2018-12-08T08:39:27.341Z,4.90
2018-12-08T08:44:25.107Z,5.00
2018-12-08T08:49:23.068Z,5.00
2018-12-08T08:54:21.025Z,5.00
2018-12-08T08:59:18.149Z,5.10
2018-12-08T09:04:20.888Z,5.10
2018-12-08T09:09:18.735Z,5.20
2018-12-08T09:14:16.657Z,5.20
2018-12-08T09:19:14.009Z,5.20
2018-12-08T09:24:11.775Z,5.20
2018-12-08T09:29:10.757Z,5.20
2018-12-08T09:34:08.779Z,5.20
2018-12-08T09:39:07.469Z,5.20
2018-12-08T09:44:05.295Z,5.10
2018-12-08T09:49:03.835Z,5.00
2018-12-08T09:54:05.077Z,5.20
2018-12-08T09:59:04.375Z,5.30
2018-12-08T10:04:02.215Z,5.30
2018-12-08T10:08:59.920Z,5.30
2018-12-08T10:13:57.814Z,5.30
2018-12-08T10:18:55.248Z,5.30
2018-12-08T10:23:53.083Z,5.40
2018-12-08T10:28:50.994Z,5.40
2018-12-08T10:33:48.742Z,5.40
2018-12-08T10:38:46.580Z,5.50
2018-12-08T10:43:44.439Z,5.50
2018-12-08T10:48:43.879Z,5.50
2018-12-08T10:51:14.034Z,5.60
2018-12-08T10:56:17.139Z,5.60
2018-12-08T11:01:19.388Z,5.60
2018-12-08T11:06:17.294Z,5.60
2018-12-08T11:11:15.887Z,5.60
2018-12-08T11:16:13.655Z,5.60
2018-12-08T11:21:12.454Z,5.60
2018-12-08T11:26:17.134Z,5.60
2018-12-08T11:31:17.175Z,5.50
2018-12-08T11:36:14.239Z,5.50
2018-12-08T11:41:17.537Z,5.50
2018-12-08T11:46:18.343Z,5.50
2018-12-08T11:51:20.938Z,5.40
2018-12-08T11:56:19.054Z,5.40
2018-12-08T12:01:16.907Z,5.40
2018-12-08T12:06:16.756Z,5.30
2018-12-08T12:11:16.922Z,5.40
2018-12-08T12:16:17.976Z,5.50
2018-12-08T12:21:15.453Z,5.70
2018-12-08T12:26:12.752Z,5.60
2018-12-08T12:31:10.375Z,5.50
2018-12-08T12:36:08.666Z,5.40
2018-12-08T12:41:05.217Z,5.30
2018-12-08T12:46:02.436Z,5.30
2018-12-08T12:51:06.361Z,5.20
2018-12-08T12:56:03.937Z,5.20
2018-12-08T12:58:34.335Z,5.10
2018-12-08T13:03:37.722Z,5.10
2018-12-08T13:08:39.625Z,5.00
2018-12-08T13:13:37.487Z,5.00
2018-12-08T13:18:36.026Z,5.00
2018-12-08T13:23:34.017Z,5.00
2018-12-08T13:28:32.735Z,5.00
2018-12-08T13:33:30.695Z,4.90
2018-12-08T13:38:29.138Z,4.80
2018-12-08T13:43:27.535Z,4.80
2018-12-08T13:48:29.524Z,4.80
2018-12-08T13:53:27.349Z,4.70
2018-12-08T13:58:25.312Z,4.70
2018-12-08T14:03:23.197Z,4.60
2018-12-08T14:08:21.157Z,4.50
2018-12-08T14:13:19.016Z,4.30
2018-12-08T14:18:16.907Z,4.20
2018-12-08T14:23:15.196Z,4.20
2018-12-08T14:28:15.258Z,4.00
2018-12-08T14:33:12.456Z,3.80
2018-12-08T14:38:14.092Z,3.80
2018-12-08T14:43:14.536Z,3.70
2018-12-08T14:48:13.456Z,3.90
2018-12-08T14:53:11.347Z,3.70
2018-12-08T14:58:10.215Z,3.50
2018-12-08T15:00:40.778Z,3.70
2018-12-08T15:05:44.259Z,3.60
2018-12-08T15:10:42.083Z,3.50
2018-12-08T15:15:42.977Z,3.40
2018-12-08T15:20:45.551Z,3.40
2018-12-08T15:25:47.853Z,3.50
2018-12-08T15:30:50.017Z,3.60
2018-12-08T15:35:53.234Z,3.70
2018-12-08T15:40:52.058Z,3.80
2018-12-08T15:45:56.935Z,3.90
2018-12-08T15:50:54.950Z,3.80
2018-12-08T15:55:52.944Z,3.70
2018-12-08T16:00:51.064Z,3.60
2018-12-08T16:05:53.782Z,3.70
2018-12-08T16:10:53.075Z,3.70
2018-12-08T16:15:52.024Z,3.70
2018-12-08T16:20:55.653Z,3.70
2018-12-08T16:25:57.659Z,3.70
2018-12-08T16:30:54.849Z,3.60
2018-12-08T16:35:58.288Z,3.40
2018-12-08T16:40:56.124Z,3.20
2018-12-08T16:43:25.862Z,3.20
2018-12-08T16:48:29.476Z,3.10
2018-12-08T16:53:27.583Z,3.20
2018-12-08T16:58:25.795Z,3.10
2018-12-08T17:03:28.245Z,3.10
2018-12-08T17:08:31.016Z,2.90
2018-12-08T17:13:29.706Z,2.60
2018-12-08T17:18:27.137Z,2.30
2018-12-08T17:23:24.266Z,2.40
2018-12-08T17:28:22.266Z,2.20
2018-12-08T17:33:21.863Z,2.40
2018-12-08T17:38:21.630Z,2.10
2018-12-08T17:40:53.185Z,2.00
2018-12-08T17:45:55.648Z,2.00
2018-12-08T17:50:53.615Z,1.80
2018-12-08T17:55:51.547Z,1.70
2018-12-08T18:00:48.414Z,1.90
2018-12-08T18:05:49.677Z,2.00
2018-12-08T18:10:47.468Z,2.10
2018-12-08T18:15:45.467Z,2.30
2018-12-08T18:20:43.319Z,2.10
2018-12-08T18:25:42.081Z,2.30
2018-12-08T18:30:43.740Z,2.20
2018-12-08T18:35:41.919Z,2.20
2018-12-08T18:40:39.752Z,2.20
2018-12-08T18:45:38.524Z,2.30
2018-12-08T18:50:42.899Z,2.30
2018-12-08T18:55:47.501Z,2.40
2018-12-08T19:00:45.578Z,2.40
2018-12-08T19:03:16.218Z,2.60
2018-12-08T19:08:17.815Z,2.40
2018-12-08T19:13:16.596Z,2.40
2018-12-08T19:18:20.919Z,2.40
2018-12-08T19:23:18.522Z,2.20
2018-12-08T19:28:21.735Z,2.10
2018-12-08T19:33:19.785Z,2.10
2018-12-08T19:38:17.819Z,2.20
2018-12-08T19:43:14.556Z,2.10
2018-12-08T19:48:12.103Z,2.00
2018-12-08T19:53:10.427Z,2.30
2018-12-08T19:58:12.186Z,2.10
2018-12-08T20:03:10.109Z,2.40
2018-12-08T20:08:09.354Z,2.20
2018-12-08T20:13:07.145Z,2.40
2018-12-08T20:18:05.425Z,2.30
2018-12-08T20:23:07.377Z,2.30
2018-12-08T20:25:38.427Z,2.30
2018-12-08T20:30:41.306Z,2.30
2018-12-08T20:35:40.236Z,2.30
2018-12-08T20:40:44.765Z,2.20
2018-12-08T20:45:42.983Z,2.20
2018-12-08T20:50:40.748Z,2.20
2018-12-08T20:55:38.102Z,2.10
2018-12-08T21:00:36.606Z,2.00
2018-12-08T21:05:35.507Z,2.00
2018-12-08T21:10:33.636Z,2.40
2018-12-08T21:15:31.164Z,2.10
2018-12-08T21:20:30.278Z,2.20
2018-12-08T21:25:33.464Z,2.30
2018-12-08T21:30:31.467Z,2.20
2018-12-08T21:33:03.465Z,2.60
2018-12-08T21:38:06.017Z,2.70
2018-12-08T21:43:04.547Z,2.50
2018-12-08T21:48:02.627Z,2.60
2018-12-08T21:53:01.347Z,2.50
2018-12-08T21:57:59.187Z,2.30
2018-12-08T22:02:57.865Z,2.30
2018-12-08T22:08:01.064Z,2.40
2018-12-08T22:12:59.104Z,2.50
2018-12-08T22:17:57.305Z,2.60
2018-12-08T22:23:00.429Z,2.10
2018-12-08T22:27:58.210Z,2.40
2018-12-08T22:33:00.275Z,2.20
2018-12-08T22:37:58.165Z,2.00
2018-12-08T22:42:57.946Z,1.80
2018-12-08T22:47:56.866Z,1.90
2018-12-08T22:52:54.685Z,2.00
2018-12-08T22:57:52.825Z,2.20
2018-12-08T23:02:52.587Z,2.00
2018-12-08T23:07:50.404Z,2.10
2018-12-08T23:12:48.964Z,2.00
2018-12-08T23:17:47.070Z,2.20
2018-12-08T23:22:44.991Z,2.10
2018-12-08T23:27:42.725Z,2.20
2018-12-08T23:32:45.596Z,2.20
2018-12-08T23:37:44.185Z,2.30
2018-12-08T23:42:45.795Z,2.40
2018-12-08T23:47:43.744Z,2.50
2018-12-08T23:52:41.624Z,2.60
2018-12-08T23:57:39.523Z,2.40
